This is the latest recevied weather packets stored in our database for station/object K3MV-13. If no packets are shown the sender has not sent any weather packets the latest 10 day(s).
| Time | Temp. | Humidity | Pressure | Rain* | Wind** | Luminosity | Snow |
|---|---|---|---|---|---|---|---|
| 1777875881 | 2.22° C | 78% | 1014.1 hPa | 0 mm | - | 0 W/m² | - |
| 1777875577 | 2.22° C | 78% | 1014.1 hPa | 0 mm | - | 0 W/m² | - |
| 1777875274 | 2.22° C | 78% | 1014.2 hPa | 0 mm | - | 0 W/m² | - |
| 1777874971 | 2.78° C | 77% | 1014.3 hPa | 0 mm | - | 0 W/m² | - |
| 1777874667 | 2.78° C | 76% | 1014.2 hPa | 0 mm | - | 0 W/m² | - |
| 1777874363 | 2.78° C | 75% | 1014.4 hPa | 0 mm | - | 0 W/m² | - |
| 1777874062 | 3.33° C | 74% | 1014.1 hPa | 0 mm | - | 0 W/m² | - |
| 1777873760 | 3.89° C | 73% | 1014.3 hPa | 0 mm | - | 0 W/m² | - |
| 1777873456 | 3.89° C | 70% | 1014.3 hPa | 0 mm | - | 0 W/m² | - |
| 1777873153 | 3.89° C | 71% | 1014.1 hPa | 0 mm | - | 0 W/m² | - |
| 1777872849 | 3.89° C | 71% | 1014.4 hPa | 0 mm | - | 0 W/m² | - |
| 1777872547 | 3.33° C | 74% | 1014.4 hPa | 0 mm | - | 0 W/m² | - |
| 1777872244 | 2.78° C | 79% | 1014.6 hPa | 0 mm | - | 0 W/m² | - |
| 1777871942 | 2.22° C | 80% | 1014.3 hPa | 0 mm | - | 0 W/m² | - |
| 1777871638 | 1.67° C | 82% | 1014.6 hPa | 0 mm | - | 0 W/m² | - |
| 1777871334 | 2.22° C | 81% | 1014.7 hPa | 0 mm | - | 0 W/m² | - |
| 1777871032 | 2.22° C | 80% | 1014.6 hPa | 0 mm | - | 0 W/m² | - |
| 1777870730 | 2.22° C | 80% | 1014.7 hPa | 0 mm | - | 0 W/m² | - |
| 1777870430 | 2.78° C | 78% | 1014.7 hPa | 0 mm | - | 0 W/m² | - |
| 1777870127 | 2.78° C | 78% | 1014.6 hPa | 0 mm | - | 0 W/m² | - |
| 1777869824 | 2.78° C | 78% | 1014.6 hPa | 0 mm | - | 0 W/m² | - |
| 1777869522 | 2.78° C | 78% | 1014.6 hPa | 0 mm | - | 0 W/m² | - |
| 1777869218 | 2.78° C | 79% | 1014.4 hPa | 0 mm | - | 0 W/m² | - |
| 1777868915 | 2.78° C | 79% | 1014.4 hPa | 0 mm | - | 0 W/m² | - |
| 1777868612 | 2.78° C | 79% | 1014.7 hPa | 0 mm | - | 0 W/m² | - |
* Rain latest hour (hover to see other rain measurements)
** Current wind speed in m/s (hover to see current wind gust speed)